sensor_id;sensor_type;location;lat;lon;timestamp;P1;durP1;ratioP1;P2;durP2;ratioP2
24635;SDS011;12772;49.794;10.024;2022-12-07T00:02:42;7.85;;;6.80;;
24635;SDS011;12772;49.794;10.024;2022-12-07T00:06:44;6.53;;;5.47;;
24635;SDS011;12772;49.794;10.024;2022-12-07T00:11:04;7.22;;;6.15;;
24635;SDS011;12772;49.794;10.024;2022-12-07T00:15:09;9.32;;;6.95;;
24635;SDS011;12772;49.794;10.024;2022-12-07T00:19:12;9.07;;;6.32;;
24635;SDS011;12772;49.794;10.024;2022-12-07T00:23:14;7.40;;;6.70;;
24635;SDS011;12772;49.794;10.024;2022-12-07T00:27:16;7.90;;;6.72;;
24635;SDS011;12772;49.794;10.024;2022-12-07T00:31:19;7.63;;;6.65;;
24635;SDS011;12772;49.794;10.024;2022-12-07T00:35:22;8.02;;;6.63;;
24635;SDS011;12772;49.794;10.024;2022-12-07T00:39:24;8.77;;;6.60;;
24635;SDS011;12772;49.794;10.024;2022-12-07T00:43:26;7.95;;;7.15;;
24635;SDS011;12772;49.794;10.024;2022-12-07T00:47:29;9.23;;;7.30;;
24635;SDS011;12772;49.794;10.024;2022-12-07T00:51:31;7.90;;;7.10;;
24635;SDS011;12772;49.794;10.024;2022-12-07T00:55:33;8.18;;;6.95;;
24635;SDS011;12772;49.794;10.024;2022-12-07T00:59:36;8.40;;;7.50;;
24635;SDS011;12772;49.794;10.024;2022-12-07T01:03:38;9.43;;;7.50;;
24635;SDS011;12772;49.794;10.024;2022-12-07T01:07:40;8.32;;;7.43;;
24635;SDS011;12772;49.794;10.024;2022-12-07T01:11:42;9.80;;;7.15;;
24635;SDS011;12772;49.794;10.024;2022-12-07T01:15:44;8.00;;;7.20;;
24635;SDS011;12772;49.794;10.024;2022-12-07T01:19:46;8.35;;;6.60;;
24635;SDS011;12772;49.794;10.024;2022-12-07T01:23:49;9.77;;;7.65;;
24635;SDS011;12772;49.794;10.024;2022-12-07T01:27:51;7.65;;;6.82;;
24635;SDS011;12772;49.794;10.024;2022-12-07T01:31:53;8.40;;;7.13;;
24635;SDS011;12772;49.794;10.024;2022-12-07T01:36:08;8.10;;;6.75;;
24635;SDS011;12772;49.794;10.024;2022-12-07T01:40:18;9.65;;;6.88;;
24635;SDS011;12772;49.794;10.024;2022-12-07T01:44:24;8.27;;;7.20;;
24635;SDS011;12772;49.794;10.024;2022-12-07T01:48:33;8.70;;;7.57;;
24635;SDS011;12772;49.794;10.024;2022-12-07T01:52:39;9.95;;;7.65;;
24635;SDS011;12772;49.794;10.024;2022-12-07T01:56:44;8.35;;;7.00;;
24635;SDS011;12772;49.794;10.024;2022-12-07T02:00:51;8.23;;;7.38;;
24635;SDS011;12772;49.794;10.024;2022-12-07T02:04:54;9.25;;;8.27;;
24635;SDS011;12772;49.794;10.024;2022-12-07T02:08:58;8.52;;;7.35;;
24635;SDS011;12772;49.794;10.024;2022-12-07T02:13:01;9.20;;;7.75;;
24635;SDS011;12772;49.794;10.024;2022-12-07T02:21:11;7.97;;;7.07;;
24635;SDS011;12772;49.794;10.024;2022-12-07T02:34:07;8.27;;;7.40;;
24635;SDS011;12772;49.794;10.024;2022-12-07T02:42:19;8.88;;;7.93;;
24635;SDS011;12772;49.794;10.024;2022-12-07T02:46:30;8.25;;;7.30;;
24635;SDS011;12772;49.794;10.024;2022-12-07T02:50:37;9.02;;;7.80;;
24635;SDS011;12772;49.794;10.024;2022-12-07T02:54:39;8.85;;;7.95;;
24635;SDS011;12772;49.794;10.024;2022-12-07T03:02:58;11.88;;;9.35;;
24635;SDS011;12772;49.794;10.024;2022-12-07T03:11:30;10.98;;;8.52;;
24635;SDS011;12772;49.794;10.024;2022-12-07T03:20:00;9.55;;;8.35;;
24635;SDS011;12772;49.794;10.024;2022-12-07T03:24:12;9.90;;;8.48;;
24635;SDS011;12772;49.794;10.024;2022-12-07T03:28:19;10.90;;;8.13;;
24635;SDS011;12772;49.794;10.024;2022-12-07T03:32:28;10.43;;;9.00;;
24635;SDS011;12772;49.794;10.024;2022-12-07T03:36:43;9.63;;;8.35;;
24635;SDS011;12772;49.794;10.024;2022-12-07T03:45:08;9.02;;;8.00;;
24635;SDS011;12772;49.794;10.024;2022-12-07T03:53:39;10.88;;;8.27;;
24635;SDS011;12772;49.794;10.024;2022-12-07T03:57:52;10.07;;;8.90;;
24635;SDS011;12772;49.794;10.024;2022-12-07T04:02:01;11.60;;;8.98;;
24635;SDS011;12772;49.794;10.024;2022-12-07T04:06:05;9.82;;;8.48;;
24635;SDS011;12772;49.794;10.024;2022-12-07T04:10:07;10.77;;;8.38;;
24635;SDS011;12772;49.794;10.024;2022-12-07T04:14:10;12.60;;;9.82;;
24635;SDS011;12772;49.794;10.024;2022-12-07T04:18:21;11.98;;;9.90;;
24635;SDS011;12772;49.794;10.024;2022-12-07T04:22:23;11.20;;;9.38;;
24635;SDS011;12772;49.794;10.024;2022-12-07T04:26:25;10.52;;;9.35;;
24635;SDS011;12772;49.794;10.024;2022-12-07T04:30:27;10.40;;;9.05;;
24635;SDS011;12772;49.794;10.024;2022-12-07T04:34:29;10.07;;;8.30;;
24635;SDS011;12772;49.794;10.024;2022-12-07T04:38:31;12.55;;;8.85;;
24635;SDS011;12772;49.794;10.024;2022-12-07T04:42:33;11.82;;;9.32;;
24635;SDS011;12772;49.794;10.024;2022-12-07T04:46:35;11.65;;;9.43;;
24635;SDS011;12772;49.794;10.024;2022-12-07T04:50:37;9.70;;;8.25;;
24635;SDS011;12772;49.794;10.024;2022-12-07T04:54:39;10.80;;;9.23;;
24635;SDS011;12772;49.794;10.024;2022-12-07T04:58:42;8.50;;;7.55;;
24635;SDS011;12772;49.794;10.024;2022-12-07T05:02:45;10.90;;;8.23;;
24635;SDS011;12772;49.794;10.024;2022-12-07T05:06:47;8.98;;;7.72;;
24635;SDS011;12772;49.794;10.024;2022-12-07T05:10:49;9.27;;;7.65;;
24635;SDS011;12772;49.794;10.024;2022-12-07T05:14:51;10.27;;;8.05;;
24635;SDS011;12772;49.794;10.024;2022-12-07T05:18:54;8.32;;;7.43;;
24635;SDS011;12772;49.794;10.024;2022-12-07T05:22:56;8.48;;;7.55;;
24635;SDS011;12772;49.794;10.024;2022-12-07T05:26:59;10.30;;;8.32;;
24635;SDS011;12772;49.794;10.024;2022-12-07T05:31:01;8.10;;;7.18;;
24635;SDS011;12772;49.794;10.024;2022-12-07T05:35:03;7.68;;;6.88;;
24635;SDS011;12772;49.794;10.024;2022-12-07T05:39:06;9.88;;;7.70;;
24635;SDS011;12772;49.794;10.024;2022-12-07T05:43:08;8.82;;;7.70;;
24635;SDS011;12772;49.794;10.024;2022-12-07T05:47:11;8.52;;;7.63;;
24635;SDS011;12772;49.794;10.024;2022-12-07T05:51:14;9.05;;;7.68;;
24635;SDS011;12772;49.794;10.024;2022-12-07T05:55:16;10.50;;;8.57;;
24635;SDS011;12772;49.794;10.024;2022-12-07T05:59:18;8.50;;;7.60;;
24635;SDS011;12772;49.794;10.024;2022-12-07T06:03:27;9.52;;;8.52;;
24635;SDS011;12772;49.794;10.024;2022-12-07T06:07:29;12.80;;;9.38;;
24635;SDS011;12772;49.794;10.024;2022-12-07T06:11:31;8.82;;;7.93;;
24635;SDS011;12772;49.794;10.024;2022-12-07T06:15:51;10.30;;;8.27;;
24635;SDS011;12772;49.794;10.024;2022-12-07T06:19:53;10.15;;;8.65;;
24635;SDS011;12772;49.794;10.024;2022-12-07T06:23:55;11.32;;;8.82;;
24635;SDS011;12772;49.794;10.024;2022-12-07T06:27:57;11.05;;;8.77;;
24635;SDS011;12772;49.794;10.024;2022-12-07T06:31:59;11.65;;;8.68;;
24635;SDS011;12772;49.794;10.024;2022-12-07T06:36:02;10.85;;;8.75;;
24635;SDS011;12772;49.794;10.024;2022-12-07T06:40:04;12.10;;;9.55;;
24635;SDS011;12772;49.794;10.024;2022-12-07T06:44:07;10.27;;;8.52;;
24635;SDS011;12772;49.794;10.024;2022-12-07T06:48:09;13.13;;;9.43;;
24635;SDS011;12772;49.794;10.024;2022-12-07T06:52:11;12.90;;;9.95;;
24635;SDS011;12772;49.794;10.024;2022-12-07T06:56:13;13.68;;;9.50;;
24635;SDS011;12772;49.794;10.024;2022-12-07T07:00:15;10.80;;;8.82;;
24635;SDS011;12772;49.794;10.024;2022-12-07T07:04:18;11.45;;;8.60;;
24635;SDS011;12772;49.794;10.024;2022-12-07T07:08:20;9.27;;;7.78;;
24635;SDS011;12772;49.794;10.024;2022-12-07T07:12:22;9.75;;;8.18;;
24635;SDS011;12772;49.794;10.024;2022-12-07T07:16:24;9.82;;;8.18;;
24635;SDS011;12772;49.794;10.024;2022-12-07T07:20:26;10.82;;;8.50;;
24635;SDS011;12772;49.794;10.024;2022-12-07T07:24:28;10.23;;;7.65;;
24635;SDS011;12772;49.794;10.024;2022-12-07T07:28:30;9.95;;;7.55;;
24635;SDS011;12772;49.794;10.024;2022-12-07T07:32:32;9.90;;;7.82;;
24635;SDS011;12772;49.794;10.024;2022-12-07T07:36:34;10.73;;;8.25;;
24635;SDS011;12772;49.794;10.024;2022-12-07T07:40:36;8.73;;;7.38;;
24635;SDS011;12772;49.794;10.024;2022-12-07T07:44:38;8.77;;;7.85;;
24635;SDS011;12772;49.794;10.024;2022-12-07T07:48:40;8.55;;;7.65;;
24635;SDS011;12772;49.794;10.024;2022-12-07T07:52:42;10.32;;;7.88;;
24635;SDS011;12772;49.794;10.024;2022-12-07T07:56:45;9.05;;;7.32;;
24635;SDS011;12772;49.794;10.024;2022-12-07T08:00:47;11.98;;;8.13;;
24635;SDS011;12772;49.794;10.024;2022-12-07T08:04:49;10.45;;;8.32;;
24635;SDS011;12772;49.794;10.024;2022-12-07T08:08:51;9.45;;;7.82;;
24635;SDS011;12772;49.794;10.024;2022-12-07T08:12:54;10.77;;;8.23;;
24635;SDS011;12772;49.794;10.024;2022-12-07T08:17:19;8.40;;;7.47;;
24635;SDS011;12772;49.794;10.024;2022-12-07T08:21:21;9.00;;;8.10;;
24635;SDS011;12772;49.794;10.024;2022-12-07T08:25:23;9.23;;;7.78;;
24635;SDS011;12772;49.794;10.024;2022-12-07T08:29:25;9.48;;;8.15;;
24635;SDS011;12772;49.794;10.024;2022-12-07T08:33:27;7.82;;;7.07;;
24635;SDS011;12772;49.794;10.024;2022-12-07T08:37:29;12.45;;;8.02;;
24635;SDS011;12772;49.794;10.024;2022-12-07T08:41:33;10.43;;;8.18;;
24635;SDS011;12772;49.794;10.024;2022-12-07T08:45:35;10.05;;;8.38;;
24635;SDS011;12772;49.794;10.024;2022-12-07T08:49:39;11.07;;;8.52;;
24635;SDS011;12772;49.794;10.024;2022-12-07T08:53:43;9.13;;;8.15;;
24635;SDS011;12772;49.794;10.024;2022-12-07T08:57:47;9.23;;;7.93;;
24635;SDS011;12772;49.794;10.024;2022-12-07T09:01:49;10.68;;;8.63;;
24635;SDS011;12772;49.794;10.024;2022-12-07T09:05:53;10.82;;;8.75;;
24635;SDS011;12772;49.794;10.024;2022-12-07T09:09:55;12.35;;;9.60;;
24635;SDS011;12772;49.794;10.024;2022-12-07T09:13:57;10.88;;;8.88;;
24635;SDS011;12772;49.794;10.024;2022-12-07T09:17:59;12.45;;;10.18;;
24635;SDS011;12772;49.794;10.024;2022-12-07T09:22:02;13.75;;;9.98;;
24635;SDS011;12772;49.794;10.024;2022-12-07T09:26:05;11.20;;;8.38;;
24635;SDS011;12772;49.794;10.024;2022-12-07T09:30:07;11.55;;;9.30;;
24635;SDS011;12772;49.794;10.024;2022-12-07T09:34:09;12.00;;;8.68;;
24635;SDS011;12772;49.794;10.024;2022-12-07T09:38:11;11.07;;;8.40;;
24635;SDS011;12772;49.794;10.024;2022-12-07T09:42:23;11.23;;;9.45;;
24635;SDS011;12772;49.794;10.024;2022-12-07T09:46:36;13.23;;;9.57;;
24635;SDS011;12772;49.794;10.024;2022-12-07T09:50:40;10.93;;;8.18;;
24635;SDS011;12772;49.794;10.024;2022-12-07T09:54:43;9.77;;;8.77;;
24635;SDS011;12772;49.794;10.024;2022-12-07T09:58:53;10.65;;;9.07;;
24635;SDS011;12772;49.794;10.024;2022-12-07T10:03:02;13.45;;;9.85;;
24635;SDS011;12772;49.794;10.024;2022-12-07T10:07:04;9.52;;;8.25;;
24635;SDS011;12772;49.794;10.024;2022-12-07T10:11:06;10.35;;;9.05;;
24635;SDS011;12772;49.794;10.024;2022-12-07T10:15:10;9.60;;;8.63;;
24635;SDS011;12772;49.794;10.024;2022-12-07T10:19:18;9.30;;;8.40;;
24635;SDS011;12772;49.794;10.024;2022-12-07T10:23:23;13.88;;;8.18;;
24635;SDS011;12772;49.794;10.024;2022-12-07T10:27:26;8.18;;;7.38;;
24635;SDS011;12772;49.794;10.024;2022-12-07T10:31:32;9.25;;;7.57;;
24635;SDS011;12772;49.794;10.024;2022-12-07T10:35:42;7.70;;;7.00;;
24635;SDS011;12772;49.794;10.024;2022-12-07T10:43:47;8.13;;;7.22;;
24635;SDS011;12772;49.794;10.024;2022-12-07T10:53:04;13.57;;;8.38;;
24635;SDS011;12772;49.794;10.024;2022-12-07T10:57:31;10.00;;;8.60;;
24635;SDS011;12772;49.794;10.024;2022-12-07T11:06:41;7.95;;;7.07;;
24635;SDS011;12772;49.794;10.024;2022-12-07T11:10:38;7.05;;;6.25;;
24635;SDS011;12772;49.794;10.024;2022-12-07T11:14:56;6.82;;;6.22;;
24635;SDS011;12772;49.794;10.024;2022-12-07T11:19:07;9.98;;;5.82;;
24635;SDS011;12772;49.794;10.024;2022-12-07T11:28:06;9.35;;;6.82;;
24635;SDS011;12772;49.794;10.024;2022-12-07T11:32:37;7.68;;;5.88;;
24635;SDS011;12772;49.794;10.024;2022-12-07T11:36:47;7.03;;;6.07;;
24635;SDS011;12772;49.794;10.024;2022-12-07T11:40:53;6.95;;;6.00;;
24635;SDS011;12772;49.794;10.024;2022-12-07T11:49:27;6.10;;;5.30;;
24635;SDS011;12772;49.794;10.024;2022-12-07T11:53:53;8.50;;;5.97;;
24635;SDS011;12772;49.794;10.024;2022-12-07T11:58:04;6.38;;;5.55;;
24635;SDS011;12772;49.794;10.024;2022-12-07T12:02:16;5.93;;;5.15;;
24635;SDS011;12772;49.794;10.024;2022-12-07T12:06:30;7.45;;;5.88;;
24635;SDS011;12772;49.794;10.024;2022-12-07T12:19:30;6.20;;;5.43;;
24635;SDS011;12772;49.794;10.024;2022-12-07T12:23:45;7.20;;;5.38;;
24635;SDS011;12772;49.794;10.024;2022-12-07T12:27:53;5.72;;;5.13;;
24635;SDS011;12772;49.794;10.024;2022-12-07T12:32:13;5.55;;;5.00;;
24635;SDS011;12772;49.794;10.024;2022-12-07T12:36:26;6.20;;;5.60;;
24635;SDS011;12772;49.794;10.024;2022-12-07T12:40:44;6.80;;;5.68;;
24635;SDS011;12772;49.794;10.024;2022-12-07T12:45:03;9.70;;;6.18;;
24635;SDS011;12772;49.794;10.024;2022-12-07T12:53:23;7.50;;;4.90;;
24635;SDS011;12772;49.794;10.024;2022-12-07T12:57:27;7.82;;;4.65;;
24635;SDS011;12772;49.794;10.024;2022-12-07T13:01:36;5.20;;;4.03;;
24635;SDS011;12772;49.794;10.024;2022-12-07T13:05:43;4.35;;;3.95;;
24635;SDS011;12772;49.794;10.024;2022-12-07T13:09:45;4.97;;;4.50;;
24635;SDS011;12772;49.794;10.024;2022-12-07T13:13:47;4.47;;;4.07;;
24635;SDS011;12772;49.794;10.024;2022-12-07T13:17:55;5.53;;;4.47;;
24635;SDS011;12772;49.794;10.024;2022-12-07T13:22:00;6.32;;;5.20;;
24635;SDS011;12772;49.794;10.024;2022-12-07T13:30:24;5.13;;;4.63;;
24635;SDS011;12772;49.794;10.024;2022-12-07T13:38:34;5.10;;;4.65;;
24635;SDS011;12772;49.794;10.024;2022-12-07T13:42:37;5.55;;;5.00;;
24635;SDS011;12772;49.794;10.024;2022-12-07T13:51:25;4.97;;;4.28;;
24635;SDS011;12772;49.794;10.024;2022-12-07T13:55:29;4.82;;;4.28;;
24635;SDS011;12772;49.794;10.024;2022-12-07T13:59:31;6.22;;;5.15;;
24635;SDS011;12772;49.794;10.024;2022-12-07T14:03:34;4.53;;;4.13;;
24635;SDS011;12772;49.794;10.024;2022-12-07T14:07:57;7.53;;;4.97;;
24635;SDS011;12772;49.794;10.024;2022-12-07T14:12:05;5.32;;;4.30;;
24635;SDS011;12772;49.794;10.024;2022-12-07T14:24:42;5.03;;;4.53;;
24635;SDS011;12772;49.794;10.024;2022-12-07T14:28:44;5.25;;;4.72;;
24635;SDS011;12772;49.794;10.024;2022-12-07T14:32:48;4.88;;;4.47;;
24635;SDS011;12772;49.794;10.024;2022-12-07T14:36:54;6.03;;;4.88;;
24635;SDS011;12772;49.794;10.024;2022-12-07T14:40:56;8.50;;;5.25;;
24635;SDS011;12772;49.794;10.024;2022-12-07T14:45:20;7.55;;;5.95;;
24635;SDS011;12772;49.794;10.024;2022-12-07T14:49:23;5.70;;;4.90;;
24635;SDS011;12772;49.794;10.024;2022-12-07T14:53:29;4.47;;;4.05;;
24635;SDS011;12772;49.794;10.024;2022-12-07T14:57:35;6.20;;;4.68;;
24635;SDS011;12772;49.794;10.024;2022-12-07T15:01:37;5.68;;;4.78;;
24635;SDS011;12772;49.794;10.024;2022-12-07T15:05:39;12.70;;;7.05;;
24635;SDS011;12772;49.794;10.024;2022-12-07T15:09:42;7.35;;;5.43;;
24635;SDS011;12772;49.794;10.024;2022-12-07T15:13:44;6.85;;;5.15;;
24635;SDS011;12772;49.794;10.024;2022-12-07T15:18:04;5.05;;;4.65;;
24635;SDS011;12772;49.794;10.024;2022-12-07T15:22:07;6.72;;;5.30;;
24635;SDS011;12772;49.794;10.024;2022-12-07T15:26:11;5.75;;;4.90;;
24635;SDS011;12772;49.794;10.024;2022-12-07T15:30:14;4.90;;;4.40;;
24635;SDS011;12772;49.794;10.024;2022-12-07T15:34:16;6.82;;;5.70;;
24635;SDS011;12772;49.794;10.024;2022-12-07T15:38:18;14.32;;;10.07;;
24635;SDS011;12772;49.794;10.024;2022-12-07T15:42:20;12.85;;;10.88;;
24635;SDS011;12772;49.794;10.024;2022-12-07T15:46:22;13.82;;;8.73;;
24635;SDS011;12772;49.794;10.024;2022-12-07T15:50:24;8.05;;;7.10;;
24635;SDS011;12772;49.794;10.024;2022-12-07T15:54:27;9.32;;;6.72;;
24635;SDS011;12772;49.794;10.024;2022-12-07T15:58:30;7.50;;;5.97;;
24635;SDS011;12772;49.794;10.024;2022-12-07T16:02:33;8.63;;;6.18;;
24635;SDS011;12772;49.794;10.024;2022-12-07T16:06:35;7.18;;;5.70;;
24635;SDS011;12772;49.794;10.024;2022-12-07T16:10:37;6.93;;;6.22;;
24635;SDS011;12772;49.794;10.024;2022-12-07T16:14:39;6.32;;;5.60;;
24635;SDS011;12772;49.794;10.024;2022-12-07T16:18:42;6.75;;;5.45;;
24635;SDS011;12772;49.794;10.024;2022-12-07T16:22:45;6.25;;;5.60;;
24635;SDS011;12772;49.794;10.024;2022-12-07T16:26:47;9.02;;;6.93;;
24635;SDS011;12772;49.794;10.024;2022-12-07T16:30:59;6.30;;;4.55;;
24635;SDS011;12772;49.794;10.024;2022-12-07T16:35:05;5.35;;;4.03;;
24635;SDS011;12772;49.794;10.024;2022-12-07T16:39:08;3.55;;;3.25;;
24635;SDS011;12772;49.794;10.024;2022-12-07T16:43:10;3.88;;;2.70;;
24635;SDS011;12772;49.794;10.024;2022-12-07T16:47:15;4.38;;;3.05;;
24635;SDS011;12772;49.794;10.024;2022-12-07T16:51:17;4.18;;;3.10;;
24635;SDS011;12772;49.794;10.024;2022-12-07T16:55:19;3.97;;;3.50;;
24635;SDS011;12772;49.794;10.024;2022-12-07T16:59:21;6.85;;;5.32;;
24635;SDS011;12772;49.794;10.024;2022-12-07T17:03:23;6.82;;;5.75;;
24635;SDS011;12772;49.794;10.024;2022-12-07T17:07:25;7.15;;;6.45;;
24635;SDS011;12772;49.794;10.024;2022-12-07T17:11:27;8.10;;;7.28;;
24635;SDS011;12772;49.794;10.024;2022-12-07T17:15:32;10.82;;;9.38;;
24635;SDS011;12772;49.794;10.024;2022-12-07T17:19:34;8.75;;;7.90;;
24635;SDS011;12772;49.794;10.024;2022-12-07T17:23:36;8.93;;;7.03;;
24635;SDS011;12772;49.794;10.024;2022-12-07T17:27:38;5.90;;;5.30;;
24635;SDS011;12772;49.794;10.024;2022-12-07T17:31:41;6.55;;;5.90;;
24635;SDS011;12772;49.794;10.024;2022-12-07T17:35:43;7.25;;;6.40;;
24635;SDS011;12772;49.794;10.024;2022-12-07T17:39:45;9.48;;;6.15;;
24635;SDS011;12772;49.794;10.024;2022-12-07T17:43:47;7.10;;;6.40;;
24635;SDS011;12772;49.794;10.024;2022-12-07T17:47:49;8.55;;;6.07;;
24635;SDS011;12772;49.794;10.024;2022-12-07T17:51:51;6.15;;;5.20;;
24635;SDS011;12772;49.794;10.024;2022-12-07T17:56:11;7.35;;;5.28;;
24635;SDS011;12772;49.794;10.024;2022-12-07T18:00:13;7.65;;;5.88;;
24635;SDS011;12772;49.794;10.024;2022-12-07T18:04:16;7.10;;;5.75;;
24635;SDS011;12772;49.794;10.024;2022-12-07T18:08:18;7.55;;;5.38;;
24635;SDS011;12772;49.794;10.024;2022-12-07T18:12:20;7.80;;;6.05;;
24635;SDS011;12772;49.794;10.024;2022-12-07T18:16:23;6.05;;;5.35;;
24635;SDS011;12772;49.794;10.024;2022-12-07T18:20:27;9.90;;;7.00;;
24635;SDS011;12772;49.794;10.024;2022-12-07T18:24:29;10.20;;;7.28;;
24635;SDS011;12772;49.794;10.024;2022-12-07T18:28:31;9.65;;;7.88;;
24635;SDS011;12772;49.794;10.024;2022-12-07T18:32:33;7.95;;;6.93;;
24635;SDS011;12772;49.794;10.024;2022-12-07T18:36:35;10.38;;;7.43;;
24635;SDS011;12772;49.794;10.024;2022-12-07T18:40:38;7.93;;;6.97;;
24635;SDS011;12772;49.794;10.024;2022-12-07T18:44:40;9.15;;;7.30;;
24635;SDS011;12772;49.794;10.024;2022-12-07T18:48:42;9.82;;;7.72;;
24635;SDS011;12772;49.794;10.024;2022-12-07T18:52:45;11.00;;;8.25;;
24635;SDS011;12772;49.794;10.024;2022-12-07T18:56:47;10.63;;;8.68;;
24635;SDS011;12772;49.794;10.024;2022-12-07T19:00:49;11.43;;;9.60;;
24635;SDS011;12772;49.794;10.024;2022-12-07T19:04:51;11.50;;;10.15;;
24635;SDS011;12772;49.794;10.024;2022-12-07T19:08:54;14.07;;;9.93;;
24635;SDS011;12772;49.794;10.024;2022-12-07T19:12:56;11.23;;;10.07;;
24635;SDS011;12772;49.794;10.024;2022-12-07T19:16:59;11.63;;;10.20;;
24635;SDS011;12772;49.794;10.024;2022-12-07T19:21:07;11.82;;;9.63;;
24635;SDS011;12772;49.794;10.024;2022-12-07T19:25:09;10.10;;;9.00;;
24635;SDS011;12772;49.794;10.024;2022-12-07T19:29:11;11.98;;;9.95;;
24635;SDS011;12772;49.794;10.024;2022-12-07T19:33:13;10.57;;;9.10;;
24635;SDS011;12772;49.794;10.024;2022-12-07T19:37:15;11.55;;;9.30;;
24635;SDS011;12772;49.794;10.024;2022-12-07T19:41:18;12.07;;;9.85;;
24635;SDS011;12772;49.794;10.024;2022-12-07T19:45:35;11.43;;;9.65;;
24635;SDS011;12772;49.794;10.024;2022-12-07T19:49:37;13.07;;;9.90;;
24635;SDS011;12772;49.794;10.024;2022-12-07T19:53:39;10.63;;;8.90;;
24635;SDS011;12772;49.794;10.024;2022-12-07T19:57:41;11.45;;;9.68;;
24635;SDS011;12772;49.794;10.024;2022-12-07T20:01:43;11.07;;;9.25;;
24635;SDS011;12772;49.794;10.024;2022-12-07T20:05:46;9.60;;;8.50;;
24635;SDS011;12772;49.794;10.024;2022-12-07T20:09:48;10.38;;;9.07;;
24635;SDS011;12772;49.794;10.024;2022-12-07T20:13:50;11.57;;;10.02;;
24635;SDS011;12772;49.794;10.024;2022-12-07T20:17:52;11.35;;;10.15;;
24635;SDS011;12772;49.794;10.024;2022-12-07T20:22:08;10.88;;;9.63;;
24635;SDS011;12772;49.794;10.024;2022-12-07T20:26:11;10.90;;;9.63;;
24635;SDS011;12772;49.794;10.024;2022-12-07T20:30:14;11.05;;;9.68;;
24635;SDS011;12772;49.794;10.024;2022-12-07T20:34:16;10.77;;;9.68;;
24635;SDS011;12772;49.794;10.024;2022-12-07T20:38:18;14.15;;;10.57;;
24635;SDS011;12772;49.794;10.024;2022-12-07T20:42:20;11.98;;;9.65;;
24635;SDS011;12772;49.794;10.024;2022-12-07T20:46:38;13.30;;;10.77;;
24635;SDS011;12772;49.794;10.024;2022-12-07T20:50:40;10.75;;;9.65;;
24635;SDS011;12772;49.794;10.024;2022-12-07T20:54:42;12.27;;;10.40;;
24635;SDS011;12772;49.794;10.024;2022-12-07T20:58:44;12.35;;;10.32;;
24635;SDS011;12772;49.794;10.024;2022-12-07T21:02:46;14.40;;;12.70;;
24635;SDS011;12772;49.794;10.024;2022-12-07T21:06:48;11.15;;;10.00;;
24635;SDS011;12772;49.794;10.024;2022-12-07T21:10:50;11.43;;;10.27;;
24635;SDS011;12772;49.794;10.024;2022-12-07T21:14:52;10.73;;;9.63;;
24635;SDS011;12772;49.794;10.024;2022-12-07T21:18:55;11.20;;;10.02;;
24635;SDS011;12772;49.794;10.024;2022-12-07T21:22:59;15.55;;;11.93;;
24635;SDS011;12772;49.794;10.024;2022-12-07T21:27:01;11.50;;;9.80;;
24635;SDS011;12772;49.794;10.024;2022-12-07T21:31:03;17.48;;;12.93;;
24635;SDS011;12772;49.794;10.024;2022-12-07T21:35:06;18.15;;;14.00;;
24635;SDS011;12772;49.794;10.024;2022-12-07T21:39:09;16.67;;;13.52;;
24635;SDS011;12772;49.794;10.024;2022-12-07T21:43:11;13.52;;;11.15;;
24635;SDS011;12772;49.794;10.024;2022-12-07T21:47:13;13.70;;;11.30;;
24635;SDS011;12772;49.794;10.024;2022-12-07T21:51:15;13.68;;;11.55;;
24635;SDS011;12772;49.794;10.024;2022-12-07T21:55:20;13.93;;;12.18;;
24635;SDS011;12772;49.794;10.024;2022-12-07T21:59:23;17.00;;;12.55;;
24635;SDS011;12772;49.794;10.024;2022-12-07T22:03:25;17.50;;;13.45;;
24635;SDS011;12772;49.794;10.024;2022-12-07T22:07:27;16.67;;;11.68;;
24635;SDS011;12772;49.794;10.024;2022-12-07T22:11:29;17.17;;;12.73;;
24635;SDS011;12772;49.794;10.024;2022-12-07T22:15:31;18.38;;;13.30;;
24635;SDS011;12772;49.794;10.024;2022-12-07T22:19:33;13.35;;;11.30;;
24635;SDS011;12772;49.794;10.024;2022-12-07T22:23:35;14.88;;;12.38;;
24635;SDS011;12772;49.794;10.024;2022-12-07T22:27:37;12.35;;;11.05;;
24635;SDS011;12772;49.794;10.024;2022-12-07T22:31:40;14.18;;;11.65;;
24635;SDS011;12772;49.794;10.024;2022-12-07T22:35:42;13.57;;;11.20;;
24635;SDS011;12772;49.794;10.024;2022-12-07T22:39:45;13.98;;;11.60;;
24635;SDS011;12772;49.794;10.024;2022-12-07T22:43:47;14.68;;;11.02;;
24635;SDS011;12772;49.794;10.024;2022-12-07T22:47:49;16.70;;;12.63;;
24635;SDS011;12772;49.794;10.024;2022-12-07T22:51:51;13.73;;;11.23;;
24635;SDS011;12772;49.794;10.024;2022-12-07T22:55:54;15.30;;;12.18;;
24635;SDS011;12772;49.794;10.024;2022-12-07T22:59:56;15.55;;;11.90;;
24635;SDS011;12772;49.794;10.024;2022-12-07T23:03:58;15.63;;;11.50;;
24635;SDS011;12772;49.794;10.024;2022-12-07T23:08:00;12.27;;;10.93;;
24635;SDS011;12772;49.794;10.024;2022-12-07T23:12:02;16.02;;;13.20;;
24635;SDS011;12772;49.794;10.024;2022-12-07T23:16:22;15.45;;;12.63;;
24635;SDS011;12772;49.794;10.024;2022-12-07T23:20:24;14.68;;;11.57;;
24635;SDS011;12772;49.794;10.024;2022-12-07T23:24:26;16.23;;;11.75;;
24635;SDS011;12772;49.794;10.024;2022-12-07T23:28:28;14.55;;;11.75;;
24635;SDS011;12772;49.794;10.024;2022-12-07T23:32:30;16.58;;;12.07;;
24635;SDS011;12772;49.794;10.024;2022-12-07T23:36:32;14.77;;;12.45;;
24635;SDS011;12772;49.794;10.024;2022-12-07T23:40:35;13.15;;;10.88;;
24635;SDS011;12772;49.794;10.024;2022-12-07T23:44:37;14.15;;;11.25;;
24635;SDS011;12772;49.794;10.024;2022-12-07T23:48:39;15.43;;;11.45;;
24635;SDS011;12772;49.794;10.024;2022-12-07T23:52:42;11.98;;;10.68;;
24635;SDS011;12772;49.794;10.024;2022-12-07T23:56:44;16.15;;;13.70;;
